Weather observations for the past three days for
Bay Bridge Field
Metric (Imperial)
Date Time (edt) Wind (kph) Vis. (km) Weather Sky Cond. Temperature (ºC) Relative Humidity Wind Chill (°C) Heat Index (°C) Pressure Precipitation (cm)
Air Dwpt 6 hour altimeter (cm) sea level (mb) 1 hr 3 hr 6 hr
Max. Min.
09 14:35 S 15 16.09 Mostly Cloudy SCT055 BKN065 BKN100 0 0 0% 75.77 0.0
09 14:15 S 15 16.09 Mostly Cloudy SCT055 BKN065 BKN090 0 0 0% 75.79 0.0
09 13:35 S 17 G 30 16.09 Partly Cloudy SCT065 0 0 0% 75.79 0.0
09 13:15 SW 19 G 33 16.09 Mostly Cloudy BKN070 BKN095 0 0 0% 75.79 0.0
09 12:55 S 17 G 30 16.09 Mostly Cloudy SCT070 BKN095 0 0 0% 75.79 0.0
09 12:35 S 19 G 31 16.09 Mostly Cloudy SCT065 BKN095 0 0 0% 75.79 0.0
09 12:15 S 24 G 35 16.09 Mostly Cloudy SCT065 BKN095 0 0 0% 75.82 0.0
09 11:55 SW 24 G 30 16.09 Partly Cloudy SCT095 0 0 0% 75.82 0.0
09 11:35 S 17 G 28 16.09 Fair CLR 0 0 0% 75.84 0.0
09 11:15 S 13 G 28 16.09 Fair CLR 0 0 0% 75.87 0.0
09 10:55 S 17 16.09 Fair CLR 0 0 0% 75.9 0.0
09 10:35 S 15 G 30 16.09 Partly Cloudy SCT100 0 0 0% 75.9 0.0
09 10:15 S 19 16.09 Partly Cloudy SCT100 0 0 0% 75.9 0.0
09 09:55 S 17 16.09 Fair CLR 0 0 0% 75.9 0.0
09 09:15 S 19 G 30 16.09 Fair CLR 0 0 0% 75.9 0.0
09 08:55 S 22 G 31 16.09 Partly Cloudy SCT120 0 0 0% 75.9 0.0
09 08:35 S 22 G 28 16.09 Partly Cloudy SCT120 0 0 0% 75.92 0.0
09 08:15 S 19 G 31 16.09 Partly Cloudy SCT120 0 0 0% 75.92 0.0
09 07:55 S 22 G 31 16.09 Fair CLR 0 0 0% 75.92 0.0
09 07:35 S 22 G 41 16.09 Fair CLR 0 0 0% 75.92 0.0
09 07:15 S 20 G 41 16.09 Fair CLR 0 0 0% 75.92 0.0
09 06:55 S 24 G 33 16.09 Fair CLR 0 0 0% 75.9 0.0
09 06:35 S 19 G 28 16.09 Fair CLR 0 0 0% 75.9 0.0
09 06:15 S 17 G 26 16.09 Fair CLR 0 0 0% 75.9 0.0
09 05:35 S 19 G 28 16.09 Fair CLR 0 0 0% 75.9 0.0
09 05:15 S 20 16.09 Fair CLR 0 0 0% 75.9 0.0
09 04:55 S 15 16.09 Fair CLR 0 0 0% 75.9 0.0
09 04:35 S 15 16.09 Fair CLR 0 0 0% 75.92 0.0
09 04:15 S 15 16.09 Partly Cloudy SCT120 0 0 0% 75.92 0.0
09 03:55 S 15 16.09 Mostly Cloudy BKN120 0 0 0% 75.92 0.0
09 03:35 S 17 G 28 16.09 Fair CLR 0 0 0% 75.92 0.0
09 03:15 S 17 G 28 16.09 Partly Cloudy SCT120 0 0 0% 75.92 0.0
09 02:55 S 19 G 30 16.09 Mostly Cloudy BKN120 0 0 0% 75.92 0.0
09 02:35 S 13 16.09 Fair CLR 0 0 0% 75.95 0.0
09 02:15 S 15 16.09 Fair CLR 0 0 0% 75.95 0.0
09 01:55 S 17 G 28 16.09 Fair CLR 0 0 0% 75.97 0.0
09 01:35 S 19 G 30 16.09 Fair CLR 0 0 0% 75.97 0.0
09 01:15 S 15 G 30 16.09 Fair CLR 0 0 0% 75.97 0.0
09 00:55 S 15 16.09 Fair CLR 0 0 0% 75.97 0.0
09 00:35 S 19 G 26 16.09 Fair CLR 0 0 0% 75.97 0.0
09 00:15 S 20 G 31 16.09 Fair CLR 0 0 0% 75.97 0.0
08 23:55 S 19 16.09 Fair CLR 0 0 0% 76 0.0
08 23:35 S 20 G 31 16.09 Fair CLR 0 0 0% 76 0.0
08 23:15 S 17 16.09 Fair CLR 0 0 0% 76 0.0
08 22:55 S 19 G 30 16.09 Fair CLR 0 0 0% 76 0.0
08 22:35 S 17 G 30 16.09 Fair CLR 0 0 0% 76 0.0
08 22:15 S 19 G 33 16.09 Fair CLR 0 0 0% 76 0.0
08 21:55 S 19 G 33 16.09 Fair CLR 0 0 0% 76 0.0
08 21:35 S 22 G 30 16.09 Fair CLR 0 0 0% 76 0.0
08 21:15 S 20 16.09 Fair CLR 0 0 0% 75.97 0.0
08 20:55 S 15 G 28 16.09 Fair CLR 0 0 0% 75.97 0.0
08 20:35 S 17 16.09 Fair CLR 0 0 0% 75.95 0.0
08 20:15 S 19 G 30 16.09 Partly Cloudy SCT110 0 0 0% 75.92 0.0
08 19:55 S 19 16.09 Overcast OVC110 0 0 0% 75.92 0.0
08 19:35 S 17 G 33 16.09 Overcast OVC120 0 0 0% 75.92 0.0
08 19:15 S 19 G 31 16.09 Overcast OVC120 0 0 0% 75.92 0.0
08 18:55 S 22 G 31 16.09 Overcast OVC120 0 0 0% 75.9 0.0
08 18:35 S 15 16.09 Mostly Cloudy BKN120 0 0 0% 75.9 0.0
08 18:15 S 15 G 33 16.09 Overcast OVC110 0 0 0% 75.9 0.0
08 17:55 S 15 G 31 16.09 Mostly Cloudy BKN090 0 0 0% 75.9 0.0
08 17:35 S 19 G 31 16.09 Fair CLR 0 0 0% 75.9 0.0
08 17:15 S 28 G 35 16.09 Fair CLR 0 0 0% 75.9 0.0
08 16:55 S 26 G 37 16.09 Fair CLR 0 0 0% 75.9 0.0
08 16:35 S 22 G 30 16.09 Fair CLR 0 0 0% 75.92 0.0
08 16:15 S 20 G 31 16.09 Fair CLR 0 0 0% 75.92 0.0
08 15:55 S 24 G 30 16.09 Fair CLR 0 0 0% 75.95 0.0
08 15:35 SW 17 G 35 16.09 Partly Cloudy SCT095 0 0 0% 75.95 0.0
08 15:15 S 15 G 35 16.09 Partly Cloudy SCT085 0 0 0% 75.97 0.0
08 14:55 SW 19 16.09 Mostly Cloudy BKN085 0 0 0% 76 0.0
08 14:35 S 19 G 30 16.09 Partly Cloudy SCT085 0 0 0% 76.02 0.0
08 14:15 SW 17 G 28 16.09 Fair CLR 0 0 0% 76.02 0.0
08 13:55 S 15 16.09 Fair CLR 0 0 0% 76.05 0.0
08 13:35 S 17 G 28 16.09 Fair CLR 0 0 0% 76.05 0.0
08 13:15 SW 17 16.09 Fair CLR 0 0 0% 76.07 0.0
08 12:55 S 13 16.09 Fair CLR 0 0 0% 76.1 0.0
08 12:35 SW 13 16.09 Fair CLR 0 0 0% 76.1 0.0
08 12:15 SW 15 16.09 Fair CLR 0 0 0% 76.12 0.0
08 11:55 SW 11 16.09 Fair CLR 0 0 0% 76.15 0.0
08 11:35 SW 11 16.09 Fair CLR 0 0 0% 76.15 0.0
08 11:15 SW 13 16.09 Fair CLR 0 0 0% 76.17 0.0
08 10:55 SW 11 16.09 Fair CLR 0 0 0% 76.17 0.0
08 10:35 S 9 16.09 Fair CLR 0 0 0% 76.17 0.0
08 10:15 W 6 16.09 Fair CLR 0 0 0% 76.2 0.0
08 09:55 Calm 16.09 Fair CLR 0 0 0% 76.2 0.0
08 09:35 W 6 16.09 Fair CLR 0 0 0% 76.2 0.0
08 09:15 W 6 16.09 Fair CLR 0 0 0% 76.23 0.0
08 08:55 W 6 16.09 Fair CLR 0 0 0% 76.23 0.0
08 08:35 SW 7 16.09 Fair CLR 0 0 0% 76.2 0.0
08 08:15 W 6 16.09 Fair CLR 0 0 0% 76.2 0.0
08 07:55 Calm 16.09 Fair CLR 0 0 0% 76.17 0.0
08 07:35 NW 6 16.09 Fair CLR 0 0 0% 76.17 0.0
08 07:15 NW 6 16.09 Fair CLR 0 0 0% 76.15 0.0
08 06:55 N 9 16.09 Fair CLR 0 0 0% 76.12 0.0
08 06:35 N 13 16.09 Fair CLR 0 0 0% 76.1 0.0
08 06:15 N 13 16.09 Fair CLR 0 0 0% 76.1 0.0
08 05:55 N 13 16.09 Fair CLR 0 0 0% 76.07 0.0
08 05:35 N 15 16.09 Fair CLR 0 0 0% 76.07 0.0
08 05:15 N 11 G 30 16.09 Fair CLR 0 0 0% 76.05 0.0
08 04:55 N 13 16.09 Fair CLR 0 0 0% 76.05 0.0
08 04:35 N 22 G 35 16.09 Fair CLR 0 0 0% 76.02 0.0
08 04:15 N 15 16.09 Fair CLR 0 0 0% 76.02 0.0
08 03:55 NW 13 16.09 Fair CLR 0 0 0% 76 0.0
08 03:35 NW 13 16.09 Fair CLR 0 0 0% 75.97 0.0
08 03:15 NW 19 G 26 16.09 Fair CLR 0 0 0% 75.95 0.0
08 02:55 NW 17 16.09 Fair CLR 0 0 0% 75.92 0.0
08 02:35 W 13 16.09 Fair CLR 0 0 0% 75.9 0.0
08 02:15 W 19 16.09 Fair CLR 0 0 0% 75.9 0.0
08 01:55 W 22 G 33 16.09 Fair CLR 0 0 0% 75.9 0.0
08 01:35 W 13 16.09 Fair CLR 0 0 0% 75.9 0.0
08 01:15 W 15 16.09 Partly Cloudy SCT080 0 0 0% 75.9 0.0
08 00:55 SW 13 16.09 Partly Cloudy SCT085 0 0 0% 75.9 0.0
08 00:35 SW 11 16.09 Mostly Cloudy BKN095 0 0 0% 75.87 0.0
08 00:15 SW 11 16.09 Overcast OVC095 0 0 0% 75.87 0.0
07 23:55 SW 13 16.09 Overcast SCT070 OVC095 0 0 0% 75.87 0.0
07 23:35 SW 17 16.09 Overcast SCT070 OVC095 0 0 0% 75.84 0.0
07 23:15 SW 11 16.09 Mostly Cloudy SCT070 BKN095 0 0 0% 75.87 0.0
07 22:55 SW 11 16.09 Partly Cloudy SCT085 0 0 0% 75.87 0.0
07 22:35 SW 11 16.09 Partly Cloudy SCT085 0 0 0% 75.87 0.0
07 22:15 SW 17 16.09 Fair CLR 0 0 0% 75.84 0.0
07 21:55 SW 20 16.09 Fair CLR 0 0 0% 75.84 0.0
07 21:35 SW 15 16.09 Fair CLR 0 0 0% 75.84 0.0
07 21:15 SW 11 16.09 Fair CLR 0 0 0% 75.82 0.0
07 20:55 SW 13 16.09 Fair CLR 0 0 0% 75.79 0.0
07 20:35 SW 13 16.09 Fair CLR 0 0 0% 75.77 0.0
07 20:15 SW 9 16.09 Fair CLR 0 0 0% 75.77 0.0
07 19:55 S 7 16.09 Fair CLR 0 0 0% 75.74 0.0
07 19:35 SW 9 16.09 Fair CLR 0 0 0% 75.72 0.0
07 19:15 S 13 16.09 Fair CLR 0 0 0% 75.72 0.0
07 18:55 SW 13 16.09 Fair CLR 0 0 0% 75.72 0.0
07 18:35 S 15 16.09 Fair CLR 0 0 0% 75.69 0.0
07 18:15 S 7 16.09 Fair CLR 0 0 0% 75.69 0.0
07 17:55 S 11 16.09 Fair CLR 0 0 0% 75.69 0.0
07 17:35 SW 6 16.09 Fair CLR 0 0 0% 75.72 0.0
07 17:15 SW 11 16.09 Fair CLR 0 0 0% 75.72 0.0
07 16:55 W 11 16.09 Partly Cloudy SCT100 0 0 0% 75.72 0.0
07 16:35 SW 13 16.09 Mostly Cloudy BKN090 BKN120 0 0 0% 75.72 0.0
07 16:15 SW 9 16.09 Overcast BKN090 OVC120 0 0 0% 75.72 0.0
07 15:55 W 9 16.09 Overcast OVC100 0 0 0% 75.69 0.0
07 15:35 W 9 16.09 Mostly Cloudy BKN100 BKN120 0 0 0% 75.74 0.0
07 15:15 E 6 16.09 Mostly Cloudy BKN100 BKN120 0 0 0% 75.72 0.0
07 14:55 Calm 16.09 Mostly Cloudy BKN090 0 0 0% 75.77 0.0
07 14:35 SW 6 16.09 Overcast SCT031 SCT043 OVC090 0 0 0% 75.79 0.0
07 14:15 Calm 16.09 Overcast SCT047 SCT060 OVC090 0 0 0% 75.79 0.0
07 13:55 NW 6 16.09 Light Rain SCT028 BKN080 OVC090 0 0 0% 75.84 0.0 0.03
07 13:35 W 9 16.09 Overcast OVC080 0 0 0% 75.87 0.0
07 13:15 N 6 16.09 Overcast OVC080 0 0 0% 75.84 0.0
07 12:55 N 7 16.09 Overcast OVC070 0 0 0% 75.87 0.0 0.03
07 12:35 NW 11 16.09 Overcast OVC070 0 0 0% 75.9 0.0 0.03
07 12:15 N 9 16.09 Overcast OVC070 0 0 0% 75.92 0.0
07 11:55 N 7 16.09 Overcast OVC060 0 0 0% 75.95 0.0
07 11:35 N 11 16.09 Overcast OVC060 0 0 0% 75.92 0.0
07 11:15 N 11 16.09 Overcast OVC060 0 0 0% 75.95 0.0
07 10:55 N 9 16.09 Overcast OVC060 0 0 0% 75.95 0.0
07 10:35 N 11 16.09 Overcast OVC060 0 0 0% 75.97 0.0
07 10:15 N 15 16.09 Overcast OVC060 0 0 0% 75.97 0.0
07 09:55 N 13 16.09 Overcast OVC050 0 0 0% 76 0.0
07 09:35 N 15 G 26 16.09 Overcast OVC050 0 0 0% 75.97 0.0
07 09:15 N 17 G 26 16.09 Overcast OVC055 0 0 0% 75.95 0.0
07 08:55 N 15 16.09 Overcast OVC055 0 0 0% 75.97 0.0
07 08:35 N 15 16.09 Overcast OVC049 0 0 0% 75.95 0.0
07 08:15 N 13 16.09 Overcast OVC049 0 0 0% 75.95 0.0
07 07:55 N 7 16.09 Overcast OVC049 0 0 0% 75.95 0.0
07 07:35 N 11 16.09 Overcast OVC049 0 0 0% 75.95 0.0
07 07:15 N 7 16.09 Overcast SCT018 SCT023 OVC049 0 0 0% 75.95 0.0
07 06:55 N 7 16.09 Overcast SCT018 SCT022 OVC047 0 0 0% 75.9 0.0
07 06:35 Calm 16.09 Overcast OVC047 0 0 0% 75.9 0.0
07 06:15 NE 6 16.09 Overcast OVC045 0 0 0% 75.9 0.0
07 05:55 NE 6 16.09 Overcast OVC045 0 0 0% 75.9 0.0
07 05:35 Calm 16.09 Overcast OVC043 0 0 0% 75.9 0.0
07 05:15 NE 6 16.09 Overcast SCT019 SCT026 OVC043 0 0 0% 75.9 0.0
07 04:55 N 13 16.09 Light Rain SCT019 SCT026 OVC043 0 0 0% 75.87 0.0
07 04:35 N 9 16.09 Overcast SCT013 SCT028 OVC041 0 0 0% 75.87 0.0
07 04:15 N 9 G 26 16.09 Overcast SCT013 OVC041 0 0 0% 75.82 0.0
07 03:55 N 17 G 30 16.09 Overcast SCT015 OVC041 0 0 0% 75.82 0.0
07 03:35 N 17 G 28 16.09 Overcast SCT015 OVC039 0 0 0% 75.82 0.0
07 03:15 N 22 G 35 16.09 Overcast OVC037 0 0 0% 75.79 0.0
07 02:55 N 20 G 33 16.09 Overcast OVC035 0 0 0% 75.77 0.0
07 02:35 N 17 G 33 16.09 Light Rain SCT010 SCT020 OVC033 0 0 0% 75.72 0.0
07 02:15 N 22 G 33 16.09 Light Rain SCT010 BKN018 OVC029 0 0 0% 75.77 0.0
07 01:35 N 17 11.27 Thunderstorm Heavy Rain in Vicinity SCT023 BKN033 OVC065 0 0 0% 75.79 0.0 0.13
07 01:15 N 13 16.09 Thunderstorm Light Rain in Vicinity SCT021 BKN031 OVC047 0 0 0% 75.77 0.0 0.05
07 00:55 NW 17 16.09 Thunderstorm Rain in Vicinity OVC029 0 0 0% 75.84 0.0 0.03
07 00:35 NW 13 16.09 Thunderstorm in Vicinity OVC025 0 0 0% 75.77 0.0
07 00:15 N 13 16.09 Overcast OVC021 0 0 0% 75.72 0.0
06 23:55 N 15 G 26 16.09 Overcast OVC021 0 0 0% 75.74 0.0
06 23:15 Calm 16.09 Overcast OVC026 0 0 0% 75.69 0.0
06 22:55 Calm 16.09 Overcast BKN030 BKN040 OVC047 0 0 0% 75.69 0.0
06 22:35 S 6 16.09 Overcast SCT030 BKN038 OVC047 0 0 0% 75.69 0.0
06 22:15 S 6 16.09 Mostly Cloudy BKN038 BKN065 0 0 0% 75.69 0.0
06 21:55 Calm 16.09 Overcast SCT030 SCT049 OVC065 0 0 0% 75.67 0.0
06 21:35 S 7 16.09 Overcast BKN028 OVC049 0 0 0% 75.72 0.0
06 21:15 Calm 16.09 Overcast BKN030 OVC085 0 0 0% 75.74 0.0
06 20:55 S 6 16.09 Overcast SCT030 OVC085 0 0 0% 75.69 0.0
06 20:35 S 6 16.09 Overcast OVC085 0 0 0% 75.69 0.0
06 20:15 Calm 16.09 Overcast SCT028 OVC095 0 0 0% 75.69 0.0
06 19:55 S 6 16.09 Mostly Cloudy BKN026 BKN095 0 0 0% 75.67 0.0
06 19:35 SW 6 16.09 Partly Cloudy SCT026 SCT095 0 0 0% 75.67 0.0
06 18:55 S 11 16.09 Mostly Cloudy BKN028 0 0 0% 75.64 0.0
06 18:35 S 7 16.09 Partly Cloudy SCT028 0 0 0% 75.64 0.0
06 18:15 SW 13 16.09 Fair CLR 0 0 0% 75.67 0.0
06 17:35 SW 13 16.09 Partly Cloudy SCT027 0 0 0% 75.64 0.0
06 17:15 SW 13 16.09 Partly Cloudy SCT026 0 0 0% 75.62 0.0
06 16:55 SW 15 16.09 Partly Cloudy SCT026 0 0 0% 75.62 0.0
06 16:35 S 20 16.09 Fair CLR 0 0 0% 75.59 0.0
06 16:15 SW 19 G 31 16.09 Partly Cloudy SCT075 0 0 0% 75.62 0.0
06 15:55 S 20 16.09 Partly Cloudy SCT075 SCT085 0 0 0% 75.62 0.0
06 15:35 S 20 G 35 16.09 Overcast OVC085 0 0 0% 75.64 0.0
06 15:15 S 17 G 30 16.09 Mostly Cloudy BKN085 0 0 0% 75.64 0.0
06 14:55 SW 20 G 35 16.09 Mostly Cloudy BKN085 0 0 0% 75.67 0.0
Date Time (edt) Wind (kph) Vis. (km) Weather Sky Cond. Air Dwpt Max. Min. Relative Humidity Wind Chill (°C) Heat Index (°C) altimeter (cm) sea level (mb) 1 hr 3 hr 6 hr
6 hour
Temperature (ºC) Pressure Precipitation (cm)